createdAt,value
2022-07-25T00:00:08.407Z,0.109
2022-07-25T00:01:08.131Z,0
2022-07-25T00:02:07.527Z,0
2022-07-25T00:03:10.756Z,0
2022-07-25T00:04:08.428Z,0
2022-07-25T00:05:07.452Z,0
2022-07-25T00:06:07.997Z,0.100
2022-07-25T00:07:07.307Z,0
2022-07-25T00:08:07.932Z,0
2022-07-25T00:09:07.782Z,0
2022-07-25T00:10:07.485Z,0
2022-07-25T00:11:07.880Z,0
2022-07-25T00:12:07.547Z,0
2022-07-25T00:13:07.284Z,0.219
2022-07-25T00:14:08.095Z,0
2022-07-25T00:15:07.997Z,0.109
2022-07-25T00:16:07.553Z,0
2022-07-25T00:17:07.279Z,0
2022-07-25T00:18:08.320Z,0.219
2022-07-25T00:19:07.718Z,0
2022-07-25T00:20:07.420Z,0
2022-07-25T00:21:08.126Z,0
2022-07-25T00:22:07.558Z,0
2022-07-25T00:23:07.302Z,0
2022-07-25T00:24:08.590Z,0
2022-07-25T00:25:08.150Z,0
2022-07-25T00:26:07.621Z,0
2022-07-25T00:27:08.242Z,0
2022-07-25T00:28:08.039Z,0
2022-07-25T00:29:07.992Z,0
2022-07-25T00:30:07.866Z,0
2022-07-25T00:31:07.578Z,0
2022-07-25T00:32:07.425Z,0
2022-07-25T00:33:07.793Z,0
2022-07-25T00:34:07.650Z,0.109
2022-07-25T00:35:07.550Z,0
2022-07-25T00:36:07.942Z,0
2022-07-25T00:37:07.351Z,0
2022-07-25T00:38:07.630Z,0
2022-07-25T00:39:07.799Z,0
2022-07-25T00:40:07.590Z,0
2022-07-25T00:41:07.884Z,0.109
2022-07-25T00:42:07.553Z,0
2022-07-25T00:43:07.304Z,0
2022-07-25T00:44:08.133Z,0
2022-07-25T00:45:08.043Z,0.109
2022-07-25T00:46:07.447Z,0
2022-07-25T00:47:07.502Z,0
2022-07-25T00:48:07.943Z,0
2022-07-25T00:49:07.723Z,0
2022-07-25T00:50:07.448Z,0
2022-07-25T00:51:07.347Z,0
2022-07-25T00:52:07.622Z,0
2022-07-25T00:53:07.233Z,0
2022-07-25T00:54:08.299Z,0
2022-07-25T00:55:08.611Z,0
2022-07-25T00:56:07.298Z,0
2022-07-25T00:57:07.878Z,0
2022-07-25T00:58:07.452Z,0
2022-07-25T00:59:07.809Z,0.109
2022-07-25T01:00:08.260Z,0
2022-07-25T01:01:08.212Z,0
2022-07-25T01:02:07.806Z,0.109
2022-07-25T01:03:07.448Z,0
2022-07-25T01:04:08.520Z,0
2022-07-25T01:05:07.954Z,0.109
2022-07-25T01:06:07.427Z,0
2022-07-25T01:07:07.867Z,0
2022-07-25T01:08:07.334Z,0
2022-07-25T01:09:07.994Z,0
2022-07-25T01:10:07.649Z,0
2022-07-25T01:11:07.987Z,0
2022-07-25T01:12:07.533Z,0
2022-07-25T01:13:07.776Z,0
2022-07-25T01:14:07.914Z,0
2022-07-25T01:15:07.721Z,0
2022-07-25T01:16:07.294Z,0
2022-07-25T01:17:07.634Z,0
2022-07-25T01:18:07.932Z,0
2022-07-25T01:19:07.424Z,0
2022-07-25T01:20:07.845Z,0
2022-07-25T01:21:07.409Z,0.109
2022-07-25T01:22:07.915Z,0.109
2022-07-25T01:23:07.413Z,0
2022-07-25T01:24:08.204Z,0
2022-07-25T01:25:07.531Z,0
2022-07-25T01:26:07.335Z,0.109
2022-07-25T01:27:07.880Z,0.119
2022-07-25T01:28:07.486Z,0.100
2022-07-25T01:29:07.695Z,0
2022-07-25T01:30:07.650Z,0
2022-07-25T01:31:07.364Z,0
2022-07-25T01:32:07.865Z,0
2022-07-25T01:33:07.418Z,0
2022-07-25T01:34:08.238Z,0
2022-07-25T01:35:08.077Z,0
2022-07-25T01:36:07.738Z,0
2022-07-25T01:37:07.272Z,0
2022-07-25T01:38:07.763Z,0.119
2022-07-25T01:39:07.499Z,0.109
2022-07-25T01:40:08.014Z,0
2022-07-25T01:41:07.698Z,0
2022-07-25T01:42:07.599Z,0
2022-07-25T01:43:07.157Z,0
2022-07-25T01:44:07.823Z,0
2022-07-25T01:45:07.420Z,0
2022-07-25T01:46:07.758Z,0
2022-07-25T01:47:07.434Z,0
2022-07-25T01:48:07.836Z,0
2022-07-25T01:49:07.515Z,0
2022-07-25T01:50:07.864Z,0
2022-07-25T01:51:07.452Z,0
2022-07-25T01:52:07.995Z,0.109
2022-07-25T01:53:07.592Z,0
2022-07-25T01:54:10.243Z,0
2022-07-25T01:55:07.396Z,0.109
2022-07-25T01:56:07.580Z,0.109
2022-07-25T01:57:07.615Z,0.219
2022-07-25T01:58:07.886Z,0
2022-07-25T01:59:07.605Z,0.109
2022-07-25T02:00:08.537Z,0
2022-07-25T02:01:07.805Z,0.109
2022-07-25T02:02:07.355Z,0
2022-07-25T02:03:07.825Z,0.109
2022-07-25T02:04:07.869Z,0.109
2022-07-25T02:05:07.254Z,0.109
2022-07-25T02:06:07.908Z,0
2022-07-25T02:07:07.669Z,0
2022-07-25T02:08:07.208Z,0.109
2022-07-25T02:09:07.243Z,0.109
2022-07-25T02:10:07.922Z,0
2022-07-25T02:11:07.638Z,0
2022-07-25T02:12:07.897Z,0
2022-07-25T02:13:07.321Z,0
2022-07-25T02:14:07.828Z,0
2022-07-25T02:15:07.766Z,0
2022-07-25T02:16:07.337Z,0.109
2022-07-25T02:17:07.918Z,0.340
2022-07-25T02:18:07.289Z,0
2022-07-25T02:19:07.980Z,0.109
2022-07-25T02:20:07.494Z,0.340
2022-07-25T02:21:13.972Z,0.219
2022-07-25T02:22:07.139Z,0.340
2022-07-25T02:23:07.970Z,0.109
2022-07-25T02:24:08.201Z,0.109
2022-07-25T02:25:07.520Z,0.219
2022-07-25T02:26:08.057Z,0
2022-07-25T02:27:07.893Z,0.219
2022-07-25T02:28:07.691Z,0.219
2022-07-25T02:29:08.026Z,0.219
2022-07-25T02:30:08.227Z,0.109
2022-07-25T02:31:07.899Z,0.109
2022-07-25T02:32:07.582Z,0.109
2022-07-25T02:33:08.107Z,0.109
2022-07-25T02:34:07.900Z,0.109
2022-07-25T02:35:13.035Z,0.109
2022-07-25T02:36:07.911Z,0.340
2022-07-25T02:37:07.330Z,0.219
2022-07-25T02:38:07.735Z,0
2022-07-25T02:39:07.470Z,0
2022-07-25T02:40:08.249Z,0.219
2022-07-25T02:41:07.687Z,0.219
2022-07-25T02:42:07.250Z,0.449
2022-07-25T02:43:08.143Z,0.449
2022-07-25T02:44:08.242Z,0
2022-07-25T02:45:08.116Z,0.219
2022-07-25T02:46:07.704Z,0.219
2022-07-25T02:47:07.998Z,0.219
2022-07-25T02:48:07.523Z,0.109
2022-07-25T02:49:08.170Z,0.109
2022-07-25T02:50:08.142Z,0
2022-07-25T02:51:07.403Z,0
2022-07-25T02:52:07.894Z,0
2022-07-25T02:53:07.463Z,0
2022-07-25T02:54:07.319Z,0
2022-07-25T02:55:09.841Z,0
2022-07-25T02:56:07.573Z,0
2022-07-25T02:57:07.843Z,13600
2022-07-25T02:58:08.130Z,0
2022-07-25T02:59:07.752Z,0
2022-07-25T03:00:08.075Z,0
2022-07-25T03:01:08.131Z,0
2022-07-25T03:02:07.988Z,0
2022-07-25T03:03:07.573Z,0
2022-07-25T03:04:08.148Z,0
2022-07-25T03:05:08.426Z,0
2022-07-25T03:06:07.571Z,0
2022-07-25T03:07:07.821Z,0
2022-07-25T03:08:07.343Z,0
2022-07-25T03:09:08.063Z,0
2022-07-25T03:10:08.724Z,0
2022-07-25T03:11:07.998Z,0
2022-07-25T03:12:07.797Z,0.050
2022-07-25T03:13:07.578Z,0
2022-07-25T03:14:07.783Z,0.239
2022-07-25T03:15:07.593Z,0.680
2022-07-25T03:16:07.488Z,0.680
2022-07-25T03:17:08.209Z,0.469
2022-07-25T03:18:07.881Z,0.409
2022-07-25T03:19:07.957Z,1.019
2022-07-25T03:20:07.603Z,1.360
2022-07-25T03:21:07.465Z,2.170
2022-07-25T03:22:07.773Z,2.470
2022-07-25T03:23:07.379Z,2.119
2022-07-25T03:24:08.173Z,3.200
2022-07-25T03:25:15.699Z,4.269
2022-07-25T03:26:07.679Z,4.329
2022-07-25T03:27:08.118Z,5.880
2022-07-25T03:28:07.679Z,6.510
2022-07-25T03:29:07.220Z,8
2022-07-25T03:30:08.034Z,9.5
2022-07-25T03:31:07.399Z,11.26
2022-07-25T03:32:07.808Z,13.39
2022-07-25T03:33:07.373Z,15.60
2022-07-25T03:34:08.389Z,18.60
2022-07-25T03:35:08.357Z,21.39
2022-07-25T03:36:07.926Z,24.89
2022-07-25T03:37:07.593Z,28.79
2022-07-25T03:38:08.234Z,33.59
2022-07-25T03:39:07.853Z,38.20
2022-07-25T03:40:07.449Z,43.79
2022-07-25T03:41:07.800Z,49.5
2022-07-25T03:42:08.215Z,55.59
2022-07-25T03:43:07.592Z,62.29
2022-07-25T03:44:07.950Z,69.90
2022-07-25T03:45:08.327Z,77.40
2022-07-25T03:46:07.915Z,85.80
2022-07-25T03:47:07.492Z,94.59
2022-07-25T03:48:07.816Z,103.5
2022-07-25T03:49:07.654Z,113
2022-07-25T03:50:07.359Z,122.9
2022-07-25T03:51:07.618Z,132
2022-07-25T03:52:07.938Z,142
2022-07-25T03:53:07.322Z,154
2022-07-25T03:54:07.832Z,165
2022-07-25T03:55:07.345Z,176
2022-07-25T03:56:07.812Z,190
2022-07-25T03:57:07.108Z,203
2022-07-25T03:58:07.272Z,216
2022-07-25T03:59:07.453Z,229
2022-07-25T04:00:08.480Z,243
2022-07-25T04:01:08.065Z,257
2022-07-25T04:02:07.778Z,271
2022-07-25T04:03:07.696Z,286
2022-07-25T04:04:07.944Z,302
2022-07-25T04:05:07.954Z,317
2022-07-25T04:06:07.407Z,334
2022-07-25T04:07:07.628Z,349
2022-07-25T04:08:08.035Z,366
2022-07-25T04:09:07.576Z,384
2022-07-25T04:10:08.545Z,400
2022-07-25T04:11:07.997Z,417
2022-07-25T04:12:07.182Z,435
2022-07-25T04:13:07.507Z,452
2022-07-25T04:14:08.255Z,469
2022-07-25T04:15:08.186Z,487
2022-07-25T04:16:11.629Z,506
2022-07-25T04:17:08.480Z,525
2022-07-25T04:18:07.708Z,544
2022-07-25T04:19:08.004Z,563
2022-07-25T04:20:07.773Z,584
2022-07-25T04:21:07.493Z,604
2022-07-25T04:22:07.829Z,626
2022-07-25T04:23:07.605Z,649
2022-07-25T04:24:08.703Z,671
2022-07-25T04:25:08.137Z,695
2022-07-25T04:26:08.094Z,722
2022-07-25T04:27:08.134Z,750
2022-07-25T04:28:07.698Z,780
2022-07-25T04:29:08.106Z,810
2022-07-25T04:30:07.862Z,840
2022-07-25T04:31:07.663Z,880
2022-07-25T04:32:08.251Z,920
2022-07-25T04:33:07.931Z,960
2022-07-25T04:34:07.851Z,1000
2022-07-25T04:35:07.857Z,1040
2022-07-25T04:36:07.127Z,1080
2022-07-25T04:37:07.432Z,1140
2022-07-25T04:38:11.895Z,1190
2022-07-25T04:39:07.849Z,1250
2022-07-25T04:40:07.641Z,1310
2022-07-25T04:41:08.114Z,1360
2022-07-25T04:42:07.403Z,1390
2022-07-25T04:43:08.070Z,1440
2022-07-25T04:44:07.798Z,1490
2022-07-25T04:45:07.743Z,1560
2022-07-25T04:46:07.338Z,1600
2022-07-25T04:47:08.069Z,1760
2022-07-25T04:48:07.581Z,1800
2022-07-25T04:49:08.036Z,1900
2022-07-25T04:50:08.201Z,2040
2022-07-25T04:51:08.033Z,2110
2022-07-25T04:52:07.634Z,2170
2022-07-25T04:53:08.357Z,2220
2022-07-25T04:54:08.310Z,2280
2022-07-25T04:55:07.597Z,2330
2022-07-25T04:56:08.276Z,2390
2022-07-25T04:57:07.997Z,2400
2022-07-25T04:58:07.665Z,2600
2022-07-25T04:59:07.444Z,2700
2022-07-25T05:00:09.071Z,2800
2022-07-25T05:01:07.485Z,2890
2022-07-25T05:02:07.283Z,2970
2022-07-25T05:03:08.148Z,3060
2022-07-25T05:04:08.046Z,3110
2022-07-25T05:05:08.267Z,3170
2022-07-25T05:06:07.185Z,3224
2022-07-25T05:07:07.851Z,3250
2022-07-25T05:08:07.380Z,3320
2022-07-25T05:09:08.248Z,3400
2022-07-25T05:10:08.438Z,3500
2022-07-25T05:11:07.418Z,3600
2022-07-25T05:12:07.904Z,3700
2022-07-25T05:13:07.468Z,3820
2022-07-25T05:14:07.929Z,3900
2022-07-25T05:15:08.149Z,4020
2022-07-25T05:16:08.115Z,4068
2022-07-25T05:17:07.838Z,4010
2022-07-25T05:18:07.305Z,3900
2022-07-25T05:19:07.864Z,3700
2022-07-25T05:20:07.327Z,3690
2022-07-25T05:21:07.670Z,3610
2022-07-25T05:22:07.209Z,3540
2022-07-25T05:23:07.683Z,3400
2022-07-25T05:24:07.738Z,3100
2022-07-25T05:25:08.301Z,3100
2022-07-25T05:26:08.188Z,3240
2022-07-25T05:27:07.613Z,3360
2022-07-25T05:28:07.954Z,3430
2022-07-25T05:29:07.412Z,3500
2022-07-25T05:30:08.718Z,3560
2022-07-25T05:31:07.569Z,3640
2022-07-25T05:32:07.462Z,3710
2022-07-25T05:33:08.065Z,3759
2022-07-25T05:34:07.825Z,3700
2022-07-25T05:35:08.262Z,3600
2022-07-25T05:36:07.985Z,3760
2022-07-25T05:37:07.386Z,3600
2022-07-25T05:38:08.236Z,3500
2022-07-25T05:39:07.835Z,3610
2022-07-25T05:40:07.696Z,3600
2022-07-25T05:41:07.530Z,3900
2022-07-25T05:42:07.448Z,3980
2022-07-25T05:43:08.067Z,4050
2022-07-25T05:44:08.112Z,4130
2022-07-25T05:45:08.385Z,4200
2022-07-25T05:46:08.091Z,4249
2022-07-25T05:47:07.917Z,4300
2022-07-25T05:48:07.546Z,4410
2022-07-25T05:49:07.368Z,4460
2022-07-25T05:50:07.482Z,4520
2022-07-25T05:51:07.851Z,4500
2022-07-25T05:52:12.433Z,4400
2022-07-25T05:53:08.128Z,4410
2022-07-25T05:54:08.250Z,4430
2022-07-25T05:55:08.449Z,4400
2022-07-25T05:56:08.017Z,4590
2022-07-25T05:57:07.463Z,4600
2022-07-25T05:58:08.360Z,4590
2022-07-25T05:59:07.756Z,4700
2022-07-25T06:00:08.368Z,4800
2022-07-25T06:01:07.596Z,4700
2022-07-25T06:02:08.293Z,4000
2022-07-25T06:03:07.308Z,4930
2022-07-25T06:04:08.410Z,4900
2022-07-25T06:05:07.634Z,4800
2022-07-25T06:06:07.257Z,4900
2022-07-25T06:07:08.087Z,5010
2022-07-25T06:08:08.070Z,4900
2022-07-25T06:09:08.207Z,5000
2022-07-25T06:10:08.065Z,5000
2022-07-25T06:11:08.209Z,5100
2022-07-25T06:12:08.224Z,5000
2022-07-25T06:13:07.807Z,5000
2022-07-25T06:14:07.752Z,5930
2022-07-25T06:15:12.464Z,6010
2022-07-25T06:16:07.856Z,5900
2022-07-25T06:17:07.620Z,5000
2022-07-25T06:18:07.981Z,5000
2022-07-25T06:19:07.775Z,5300
2022-07-25T06:20:07.968Z,5400
2022-07-25T06:21:07.500Z,5460
2022-07-25T06:22:07.969Z,5500
2022-07-25T06:23:07.877Z,5000
2022-07-25T06:24:07.804Z,6000
2022-07-25T06:25:07.692Z,6000
2022-07-25T06:26:07.251Z,6700
2022-07-25T06:27:07.761Z,6910
2022-07-25T06:28:07.254Z,6900
2022-07-25T06:29:07.747Z,6600
2022-07-25T06:30:18.738Z,6400
2022-07-25T06:31:07.550Z,6200
2022-07-25T06:32:07.336Z,6130
2022-07-25T06:33:08.098Z,6300
2022-07-25T06:34:08.005Z,6430
2022-07-25T06:35:08.094Z,6000
2022-07-25T06:36:07.537Z,5000
2022-07-25T06:37:07.389Z,5000
2022-07-25T06:38:08.177Z,5000
2022-07-25T06:39:08.224Z,4700
2022-07-25T06:40:08.065Z,4300
2022-07-25T06:41:08.250Z,4310
2022-07-25T06:42:08.198Z,4230
2022-07-25T06:43:08.422Z,4180
2022-07-25T06:44:08.202Z,4159
2022-07-25T06:45:07.600Z,4160
2022-07-25T06:46:07.384Z,4198
2022-07-25T06:47:08.344Z,4200
2022-07-25T06:48:08.031Z,4340
2022-07-25T06:49:07.742Z,4400
2022-07-25T06:50:08.040Z,4600
2022-07-25T06:51:07.760Z,4800
2022-07-25T06:52:07.457Z,5100
2022-07-25T06:53:08.358Z,5300
2022-07-25T06:54:08.907Z,5520
2022-07-25T06:55:08.174Z,5534
2022-07-25T06:56:07.853Z,5470
2022-07-25T06:57:07.826Z,5300
2022-07-25T06:58:07.481Z,5180
2022-07-25T06:59:08.090Z,5127
2022-07-25T07:00:08.576Z,5080
2022-07-25T07:01:07.565Z,5010
2022-07-25T07:02:07.601Z,4940
2022-07-25T07:03:07.724Z,4938
2022-07-25T07:04:08.119Z,4970
2022-07-25T07:05:08.640Z,5000
2022-07-25T07:06:08.241Z,5100
2022-07-25T07:07:07.911Z,5260
2022-07-25T07:08:07.772Z,5281
2022-07-25T07:09:07.568Z,5200
2022-07-25T07:10:07.548Z,5000
2022-07-25T07:11:07.971Z,5000
2022-07-25T07:12:07.807Z,4960
2022-07-25T07:13:07.678Z,5040
2022-07-25T07:14:07.944Z,5100
2022-07-25T07:15:07.742Z,5300
2022-07-25T07:16:07.597Z,5500
2022-07-25T07:17:07.479Z,5700
2022-07-25T07:18:08.046Z,5900
2022-07-25T07:19:08.150Z,6060
2022-07-25T07:20:08.177Z,6116
2022-07-25T07:21:07.330Z,6090
2022-07-25T07:22:07.530Z,6050
2022-07-25T07:23:07.985Z,6010
2022-07-25T07:24:24.248Z,6010
2022-07-25T07:25:07.781Z,6047
2022-07-25T07:26:08.159Z,6010
2022-07-25T07:27:08.137Z,6020
2022-07-25T07:28:08.055Z,6060
2022-07-25T07:29:08.047Z,6140
2022-07-25T07:30:08.244Z,6200
2022-07-25T07:31:17.135Z,6350
2022-07-25T07:32:08.179Z,6410
2022-07-25T07:33:08.553Z,6444
2022-07-25T07:34:08.135Z,6474
2022-07-25T07:35:07.985Z,6500
2022-07-25T07:36:07.698Z,6600
2022-07-25T07:37:07.732Z,6680
2022-07-25T07:38:07.411Z,6670
2022-07-25T07:39:08.452Z,6500
2022-07-25T07:40:07.483Z,6300
2022-07-25T07:41:07.541Z,6200
2022-07-25T07:42:08.197Z,6110
2022-07-25T07:43:07.851Z,6130
2022-07-25T07:44:07.653Z,6200
2022-07-25T07:45:07.962Z,6300
2022-07-25T07:46:07.790Z,6400
2022-07-25T07:47:07.566Z,6600
2022-07-25T07:48:07.305Z,6800
2022-07-25T07:49:08.479Z,7010
2022-07-25T07:50:07.666Z,7065
2022-07-25T07:51:07.523Z,7050
2022-07-25T07:52:08.122Z,7000
2022-07-25T07:53:07.849Z,6800
2022-07-25T07:54:07.324Z,6700
2022-07-25T07:55:08.054Z,6500
2022-07-25T07:56:07.640Z,6400
2022-07-25T07:57:07.318Z,6200
2022-07-25T07:58:07.694Z,6000
2022-07-25T07:59:08.010Z,5800
2022-07-25T08:00:11.447Z,5600
2022-07-25T08:01:07.554Z,5520
2022-07-25T08:02:08.135Z,5498
2022-07-25T08:03:07.884Z,5514
2022-07-25T08:04:08.132Z,5530
2022-07-25T08:05:08.424Z,5590
2022-07-25T08:06:08.384Z,5600
2022-07-25T08:07:08.367Z,5800
2022-07-25T08:08:08.298Z,5900
2022-07-25T08:09:08.891Z,6000
2022-07-25T08:10:08.005Z,6200
2022-07-25T08:11:07.788Z,6400
2022-07-25T08:12:07.542Z,6530
2022-07-25T08:13:08.009Z,6570
2022-07-25T08:14:08.090Z,6610
2022-07-25T08:15:08.225Z,6500
2022-07-25T08:16:08.184Z,6400
2022-07-25T08:17:07.453Z,6200
2022-07-25T08:18:17.687Z,5900
2022-07-25T08:19:08.112Z,5800
2022-07-25T08:20:27.996Z,5780
2022-07-25T08:21:07.791Z,5800
2022-07-25T08:22:07.472Z,5900
2022-07-25T08:23:08.309Z,6100
2022-07-25T08:24:09.177Z,6210
2022-07-25T08:25:07.758Z,6219
2022-07-25T08:26:07.390Z,6215.
2022-07-25T08:27:08.133Z,6230
2022-07-25T08:28:07.878Z,6260
2022-07-25T08:29:18.597Z,6340
2022-07-25T08:30:08.025Z,6400
2022-07-25T08:31:07.761Z,6554
2022-07-25T08:32:07.847Z,6520
2022-07-25T08:33:07.883Z,6400
2022-07-25T08:34:08.070Z,6300
2022-07-25T08:35:11.361Z,6100
2022-07-25T08:36:07.729Z,6140
2022-07-25T08:37:07.592Z,6200
2022-07-25T08:38:07.856Z,6300
2022-07-25T08:39:07.997Z,6600
2022-07-25T08:40:08.109Z,6000
2022-07-25T08:41:08.008Z,7200
2022-07-25T08:42:11.105Z,7000
2022-07-25T08:43:07.443Z,8000
2022-07-25T08:44:08.584Z,9000
2022-07-25T08:45:07.958Z,10000
2022-07-25T08:46:07.664Z,11000
2022-07-25T08:47:07.809Z,0
2022-07-25T08:48:07.831Z,0
2022-07-25T08:49:07.913Z,0
2022-07-25T08:50:08.363Z,10000
2022-07-25T08:51:08.331Z,10000
2022-07-25T08:52:08.087Z,10000
2022-07-25T08:53:32.266Z,10200
2022-07-25T08:54:08.852Z,10000
2022-07-25T08:55:07.594Z,0
2022-07-25T08:56:11.535Z,0
2022-07-25T08:57:07.576Z,0
2022-07-25T08:58:07.626Z,0
2022-07-25T08:59:07.364Z,0
2022-07-25T09:00:08.852Z,0
2022-07-25T09:01:08.471Z,8000
2022-07-25T09:02:08.447Z,8100
2022-07-25T09:03:08.409Z,0
2022-07-25T09:04:08.615Z,0
2022-07-25T09:05:07.815Z,8000
2022-07-25T09:06:07.553Z,9000
2022-07-25T09:07:08.490Z,10000
2022-07-25T09:08:08.236Z,11000
2022-07-25T09:09:08.513Z,12000
2022-07-25T09:10:08.473Z,10000
2022-07-25T09:11:08.463Z,13000
2022-07-25T09:12:08.321Z,13000
2022-07-25T09:13:08.507Z,14000
2022-07-25T09:14:09.040Z,15000
2022-07-25T09:15:08.092Z,14000
2022-07-25T09:16:07.670Z,14000
2022-07-25T09:17:07.558Z,14400
2022-07-25T09:18:10.859Z,14000
2022-07-25T09:19:07.576Z,10000
2022-07-25T09:20:08.360Z,10000
2022-07-25T09:21:07.760Z,9000
2022-07-25T09:22:07.382Z,8000
2022-07-25T09:23:08.404Z,8100
2022-07-25T09:24:08.306Z,8200
2022-07-25T09:25:07.545Z,8400
2022-07-25T09:26:08.548Z,8000
2022-07-25T09:27:08.105Z,9000
2022-07-25T09:28:07.282Z,10000
2022-07-25T09:29:08.100Z,0
2022-07-25T09:30:07.708Z,0
2022-07-25T09:31:07.748Z,22000
2022-07-25T09:32:07.973Z,0
2022-07-25T09:33:08.051Z,20000
2022-07-25T09:34:08.061Z,20000
2022-07-25T09:35:08.059Z,30000
2022-07-25T09:36:08.092Z,0
2022-07-25T09:37:08.193Z,20000
2022-07-25T09:38:07.885Z,0
2022-07-25T09:39:08.122Z,0
2022-07-25T09:40:07.821Z,0
2022-07-25T09:41:07.521Z,0
2022-07-25T09:42:07.965Z,0
2022-07-25T09:43:07.972Z,0
2022-07-25T09:44:08.721Z,0
2022-07-25T09:45:07.990Z,10000
2022-07-25T09:46:07.741Z,14000
2022-07-25T09:47:07.520Z,14000
2022-07-25T09:48:08.276Z,0
2022-07-25T09:49:08.302Z,10000
2022-07-25T09:50:08.376Z,10100
2022-07-25T09:51:08.102Z,10000
2022-07-25T09:52:07.492Z,10700
2022-07-25T09:53:08.186Z,10000
2022-07-25T09:54:08.691Z,0
2022-07-25T09:55:07.985Z,0
2022-07-25T09:56:07.493Z,6000
2022-07-25T09:57:08.379Z,6100
2022-07-25T09:58:07.669Z,6000
2022-07-25T09:59:07.945Z,5800
2022-07-25T10:00:08.569Z,5740
2022-07-25T10:01:07.606Z,5600
2022-07-25T10:02:07.617Z,5000
2022-07-25T10:03:07.682Z,0
2022-07-25T10:04:08.420Z,3000
2022-07-25T10:05:07.836Z,2000
2022-07-25T10:06:07.642Z,2200
2022-07-25T10:07:07.715Z,2000
2022-07-25T10:08:07.464Z,2040.
2022-07-25T10:09:08.445Z,2070
2022-07-25T10:10:08.666Z,2104
2022-07-25T10:11:07.749Z,2060
2022-07-25T10:12:07.628Z,1900
2022-07-25T10:13:10.503Z,1800
2022-07-25T10:14:08.005Z,1600
2022-07-25T10:15:08.446Z,1500
2022-07-25T10:16:07.972Z,1440
2022-07-25T10:17:07.549Z,1430
2022-07-25T10:18:07.461Z,1500
2022-07-25T10:19:08.297Z,1600
2022-07-25T10:20:08.117Z,1800
2022-07-25T10:21:24.542Z,2100
2022-07-25T10:22:07.667Z,2300
2022-07-25T10:23:08.442Z,2600
2022-07-25T10:24:08.603Z,2000
2022-07-25T10:25:07.870Z,3000
2022-07-25T10:26:07.778Z,4000
2022-07-25T10:27:07.935Z,5000
2022-07-25T10:28:07.746Z,5000
2022-07-25T10:29:07.523Z,0
2022-07-25T10:30:08.470Z,0
2022-07-25T10:31:07.516Z,0
2022-07-25T10:32:07.642Z,0
2022-07-25T10:33:07.553Z,0
2022-07-25T10:34:08.816Z,8000
2022-07-25T10:35:08.459Z,0
2022-07-25T10:36:08.152Z,7000
2022-07-25T10:37:07.831Z,6000
2022-07-25T10:38:07.457Z,5000
2022-07-25T10:39:08.266Z,5000
2022-07-25T10:40:08.481Z,5000
2022-07-25T10:41:07.781Z,4600
2022-07-25T10:42:07.736Z,4400
2022-07-25T10:43:07.463Z,4500
2022-07-25T10:44:08.554Z,4700
2022-07-25T10:45:07.517Z,4740
2022-07-25T10:46:07.732Z,4700
2022-07-25T10:47:07.855Z,4710
2022-07-25T10:48:07.523Z,4690
2022-07-25T10:49:08.636Z,4500
2022-07-25T10:50:25.449Z,4430
2022-07-25T10:51:07.767Z,4340
2022-07-25T10:52:07.649Z,4000
2022-07-25T10:53:08.538Z,5000
2022-07-25T10:54:08.091Z,0
2022-07-25T10:55:07.949Z,0
2022-07-25T10:56:07.804Z,0
2022-07-25T10:57:07.574Z,0
2022-07-25T10:58:17.488Z,10000
2022-07-25T10:59:08.144Z,9400
2022-07-25T11:00:08.323Z,10000
2022-07-25T11:01:08.270Z,0
2022-07-25T11:02:08.050Z,0
2022-07-25T11:03:07.902Z,0
2022-07-25T11:04:07.749Z,10000
2022-07-25T11:05:07.813Z,0
2022-07-25T11:06:07.668Z,8000
2022-07-25T11:07:08.245Z,0
2022-07-25T11:08:20.735Z,0
2022-07-25T11:09:09.001Z,0
2022-07-25T11:10:08.270Z,0
2022-07-25T11:11:08.179Z,10000
2022-07-25T11:12:07.930Z,0
2022-07-25T11:13:07.879Z,9000
2022-07-25T11:14:07.584Z,10000
2022-07-25T11:15:08.260Z,0
2022-07-25T11:16:07.560Z,0
2022-07-25T11:17:08.235Z,0
2022-07-25T11:18:08.126Z,0
2022-07-25T11:19:08.185Z,0
2022-07-25T11:20:08.791Z,0
2022-07-25T11:21:07.844Z,0
2022-07-25T11:22:07.619Z,9000
2022-07-25T11:23:07.678Z,10000
2022-07-25T11:24:07.441Z,10000
2022-07-25T11:25:08.442Z,10000
2022-07-25T11:26:08.297Z,0
2022-07-25T11:27:12.424Z,10000
2022-07-25T11:28:07.769Z,11000
2022-07-25T11:29:07.742Z,0
2022-07-25T11:30:08.247Z,0
2022-07-25T11:31:08.214Z,0
2022-07-25T11:32:08.149Z,10000
2022-07-25T11:33:08.109Z,10000
2022-07-25T11:34:08.182Z,10000
2022-07-25T11:35:08.523Z,10000
2022-07-25T11:36:08.212Z,0
2022-07-25T11:37:08.089Z,0
2022-07-25T11:38:08.257Z,0
2022-07-25T11:39:08.584Z,0
2022-07-25T11:40:08.264Z,0
2022-07-25T11:41:08.059Z,0
2022-07-25T11:42:08.069Z,0
2022-07-25T11:43:07.917Z,0
2022-07-25T11:44:07.784Z,0
2022-07-25T11:45:07.845Z,0
2022-07-25T11:46:07.980Z,0
2022-07-25T11:47:08.024Z,0
2022-07-25T11:48:07.836Z,0
2022-07-25T11:49:07.800Z,0
2022-07-25T11:50:08.066Z,0
2022-07-25T11:51:08.095Z,0
2022-07-25T11:52:08.330Z,0
2022-07-25T11:53:07.065Z,0
2022-07-25T11:54:07.983Z,0
2022-07-25T11:55:07.679Z,0
2022-07-25T11:56:32.158Z,0
2022-07-25T11:57:08.052Z,0
2022-07-25T11:58:07.685Z,0
2022-07-25T11:59:08.344Z,10000
2022-07-25T12:00:09.000Z,9000
2022-07-25T12:01:08.276Z,9100
2022-07-25T12:02:07.994Z,9000
2022-07-25T12:03:08.357Z,9000
2022-07-25T12:04:07.576Z,0
2022-07-25T12:05:07.958Z,0
2022-07-25T12:06:08.440Z,11000
2022-07-25T12:07:08.282Z,0
2022-07-25T12:08:08.427Z,0
2022-07-25T12:09:08.753Z,0
2022-07-25T12:10:08.696Z,0
2022-07-25T12:11:07.984Z,0
2022-07-25T12:12:08.303Z,0
2022-07-25T12:13:08.173Z,8000
2022-07-25T12:14:08.397Z,0
2022-07-25T12:15:08.104Z,0
2022-07-25T12:16:08.232Z,9000
2022-07-25T12:17:08.359Z,0
2022-07-25T12:18:07.887Z,0
2022-07-25T12:19:08.734Z,0
2022-07-25T12:20:10.999Z,0
2022-07-25T12:21:08.441Z,0
2022-07-25T12:22:08.547Z,0
2022-07-25T12:23:08.631Z,8000
2022-07-25T12:24:07.711Z,8000
2022-07-25T12:25:07.609Z,0
2022-07-25T12:26:07.656Z,0
2022-07-25T12:27:07.292Z,7000
2022-07-25T12:28:08.192Z,7000
2022-07-25T12:29:08.390Z,6800
2022-07-25T12:30:07.670Z,7000
2022-07-25T12:31:07.963Z,0
2022-07-25T12:32:08.241Z,0
2022-07-25T12:33:08.286Z,5000
2022-07-25T12:34:08.068Z,5300
2022-07-25T12:35:08.214Z,5500
2022-07-25T12:36:08.594Z,5000
2022-07-25T12:37:07.745Z,0
2022-07-25T12:38:08.075Z,3000
2022-07-25T12:39:08.653Z,3200
2022-07-25T12:40:08.373Z,3190
2022-07-25T12:41:08.205Z,3100
2022-07-25T12:42:08.571Z,3000
2022-07-25T12:43:08.223Z,2900
2022-07-25T12:44:08.320Z,2780
2022-07-25T12:45:07.925Z,2680
2022-07-25T12:46:07.895Z,2500
2022-07-25T12:47:08.239Z,2500
2022-07-25T12:48:08.056Z,2700
2022-07-25T12:49:08.499Z,0
2022-07-25T12:50:08.257Z,0
2022-07-25T12:51:08.222Z,0
2022-07-25T12:52:08.374Z,0
2022-07-25T12:53:08.433Z,0
2022-07-25T12:54:08.664Z,0
2022-07-25T12:55:07.546Z,0
2022-07-25T12:56:07.310Z,0
2022-07-25T12:57:08.096Z,0
2022-07-25T12:58:07.609Z,0
2022-07-25T12:59:07.854Z,7000
2022-07-25T13:00:08.525Z,0
2022-07-25T13:01:07.447Z,0
2022-07-25T13:02:07.638Z,0
2022-07-25T13:03:08.334Z,0
2022-07-25T13:04:08.459Z,0
2022-07-25T13:05:08.324Z,15000
2022-07-25T13:06:08.012Z,10000
2022-07-25T13:07:07.885Z,0
2022-07-25T13:08:07.646Z,0
2022-07-25T13:09:08.001Z,0
2022-07-25T13:10:08.324Z,0
2022-07-25T13:11:07.967Z,0
2022-07-25T13:12:07.714Z,20000
2022-07-25T13:13:08.007Z,0
2022-07-25T13:14:07.707Z,0
2022-07-25T13:15:08.169Z,0
2022-07-25T13:16:08.084Z,0
2022-07-25T13:17:08.088Z,0
2022-07-25T13:18:08.367Z,0
2022-07-25T13:19:08.611Z,0
2022-07-25T13:20:08.201Z,0
2022-07-25T13:21:08.388Z,0
2022-07-25T13:22:08.096Z,0
2022-07-25T13:23:08.379Z,0
2022-07-25T13:24:08.299Z,0
2022-07-25T13:25:07.607Z,0
2022-07-25T13:26:08.309Z,0
2022-07-25T13:27:08.117Z,0
2022-07-25T13:28:10.954Z,10000
2022-07-25T13:29:08.572Z,0
2022-07-25T13:30:08.382Z,0
2022-07-25T13:31:07.448Z,0
2022-07-25T13:32:07.903Z,0
2022-07-25T13:33:07.978Z,0
2022-07-25T13:34:08.032Z,0
2022-07-25T13:35:08.117Z,0
2022-07-25T13:36:07.980Z,10000
2022-07-25T13:37:08.286Z,0
2022-07-25T13:38:08.260Z,10000
2022-07-25T13:39:08.456Z,0
2022-07-25T13:40:07.634Z,0
2022-07-25T13:41:07.953Z,0
2022-07-25T13:42:07.564Z,0
2022-07-25T13:43:08.356Z,10000